CheckWX is a tool to help pilots better visualize weather data.  It is not intended as a substitute for an official pre-flight weather briefing.

00:33:44 UTC

KMKN METAR
Comanche County-City Airport
Comanche, Texas, USA
Current

39 mins ago

KMKN 222355Z AUTO 18005KT 10SM OVC060 22/12 A3003 RMK AO2 T02160115 10250 20216
Observed
Mar-22 @ 23:55 UTC
Wind
  • 180° at 5 KTS
Visibility
10 SM
Flight Rules
VFR
Cloud Levels
  • Overcast at 6,000' AGL
Temperature
22°C / 72°F
Dewpoint
12°C / 54°F
Humidity
53%
Altimeter
30.03" Hg
Pressure
1016.92 hPa
Previous

59 mins ago

KMKN 222335Z AUTO 18007KT 10SM OVC060 22/11 A3002 RMK AO2 T02200111
Observed
Mar-22 @ 23:35 UTC
Wind
  • 180° at 7 KTS
Visibility
10 SM
Flight Rules
VFR
Cloud Levels
  • Overcast at 6,000' AGL
Temperature
22°C / 72°F
Dewpoint
11°C / 52°F
Humidity
50%
Altimeter
30.02" Hg
Pressure
1016.62 hPa
Previous

1 hour ago

KMKN 222315Z AUTO 16010G16KT 10SM OVC060 22/11 A3001 RMK AO2 T02230109
Observed
Mar-22 @ 23:15 UTC
Wind
  • 160° at 10 KTS
  • Gusting to 16 KTS
Visibility
10 SM
Flight Rules
VFR
Cloud Levels
  • Overcast at 6,000' AGL
Temperature
22°C / 72°F
Dewpoint
11°C / 52°F
Humidity
50%
Altimeter
30.01" Hg
Pressure
1016.22 hPa